sensor_id;sensor_type;location;lat;lon;timestamp;temperature;humidity
15103;DHT22;7652;53.584;9.998;2022-11-21T00:00:09;1.40;99.90
15103;DHT22;7652;53.584;9.998;2022-11-21T00:03:13;1.30;99.90
15103;DHT22;7652;53.584;9.998;2022-11-21T00:06:16;1.30;99.90
15103;DHT22;7652;53.584;9.998;2022-11-21T00:09:21;1.20;99.90
15103;DHT22;7652;53.584;9.998;2022-11-21T00:12:24;1.10;99.90
15103;DHT22;7652;53.584;9.998;2022-11-21T00:15:28;1.20;99.90
15103;DHT22;7652;53.584;9.998;2022-11-21T00:18:32;1.20;99.90
15103;DHT22;7652;53.584;9.998;2022-11-21T00:21:35;1.20;99.90
15103;DHT22;7652;53.584;9.998;2022-11-21T00:24:39;1.20;99.90
15103;DHT22;7652;53.584;9.998;2022-11-21T00:27:42;1.20;99.90
15103;DHT22;7652;53.584;9.998;2022-11-21T00:30:45;1.20;99.90
15103;DHT22;7652;53.584;9.998;2022-11-21T00:33:48;1.30;99.90
15103;DHT22;7652;53.584;9.998;2022-11-21T00:36:51;1.30;99.90
15103;DHT22;7652;53.584;9.998;2022-11-21T00:39:55;1.30;99.90
15103;DHT22;7652;53.584;9.998;2022-11-21T00:42:58;1.30;99.90
15103;DHT22;7652;53.584;9.998;2022-11-21T00:46:01;1.30;99.90
15103;DHT22;7652;53.584;9.998;2022-11-21T00:49:05;1.30;99.90
15103;DHT22;7652;53.584;9.998;2022-11-21T00:52:08;1.30;99.90
15103;DHT22;7652;53.584;9.998;2022-11-21T00:55:12;1.30;99.90
15103;DHT22;7652;53.584;9.998;2022-11-21T00:58:15;1.20;99.90
15103;DHT22;7652;53.584;9.998;2022-11-21T01:01:18;1.20;99.90
15103;DHT22;7652;53.584;9.998;2022-11-21T01:04:21;1.20;99.90
15103;DHT22;7652;53.584;9.998;2022-11-21T01:07:24;1.10;99.90
15103;DHT22;7652;53.584;9.998;2022-11-21T01:10:28;1.20;99.90
15103;DHT22;7652;53.584;9.998;2022-11-21T01:13:32;1.20;99.90
15103;DHT22;7652;53.584;9.998;2022-11-21T01:16:35;1.30;99.90
15103;DHT22;7652;53.584;9.998;2022-11-21T01:19:38;1.30;99.90
15103;DHT22;7652;53.584;9.998;2022-11-21T01:22:41;1.20;99.90
15103;DHT22;7652;53.584;9.998;2022-11-21T01:25:45;1.10;99.90
15103;DHT22;7652;53.584;9.998;2022-11-21T01:28:49;1.10;99.90
15103;DHT22;7652;53.584;9.998;2022-11-21T01:31:52;1.10;99.90
15103;DHT22;7652;53.584;9.998;2022-11-21T01:34:55;1.10;99.90
15103;DHT22;7652;53.584;9.998;2022-11-21T01:37:58;1.00;99.90
15103;DHT22;7652;53.584;9.998;2022-11-21T01:41:02;1.10;99.90
15103;DHT22;7652;53.584;9.998;2022-11-21T01:44:14;1.10;99.90
15103;DHT22;7652;53.584;9.998;2022-11-21T01:47:18;1.10;99.90
15103;DHT22;7652;53.584;9.998;2022-11-21T01:50:23;1.00;99.90
15103;DHT22;7652;53.584;9.998;2022-11-21T01:53:26;0.90;99.90
15103;DHT22;7652;53.584;9.998;2022-11-21T01:56:33;0.90;99.90
15103;DHT22;7652;53.584;9.998;2022-11-21T01:59:40;0.90;99.90
15103;DHT22;7652;53.584;9.998;2022-11-21T02:02:47;1.00;99.90
15103;DHT22;7652;53.584;9.998;2022-11-21T02:05:51;1.00;99.90
15103;DHT22;7652;53.584;9.998;2022-11-21T02:08:56;1.00;99.90
15103;DHT22;7652;53.584;9.998;2022-11-21T02:12:05;1.00;99.90
15103;DHT22;7652;53.584;9.998;2022-11-21T02:15:10;1.00;99.90
15103;DHT22;7652;53.584;9.998;2022-11-21T02:18:13;1.00;99.90
15103;DHT22;7652;53.584;9.998;2022-11-21T02:21:21;1.00;99.90
15103;DHT22;7652;53.584;9.998;2022-11-21T02:24:30;1.00;99.90
15103;DHT22;7652;53.584;9.998;2022-11-21T02:27:35;1.10;99.90
15103;DHT22;7652;53.584;9.998;2022-11-21T02:30:40;1.20;99.90
15103;DHT22;7652;53.584;9.998;2022-11-21T02:33:43;1.20;99.90
15103;DHT22;7652;53.584;9.998;2022-11-21T02:36:46;1.30;99.90
15103;DHT22;7652;53.584;9.998;2022-11-21T02:39:49;1.30;99.90
15103;DHT22;7652;53.584;9.998;2022-11-21T02:43:00;1.30;99.90
15103;DHT22;7652;53.584;9.998;2022-11-21T02:46:04;1.30;99.90
15103;DHT22;7652;53.584;9.998;2022-11-21T02:49:08;1.30;99.90
15103;DHT22;7652;53.584;9.998;2022-11-21T02:52:11;1.30;99.90
15103;DHT22;7652;53.584;9.998;2022-11-21T02:55:14;1.30;99.90
15103;DHT22;7652;53.584;9.998;2022-11-21T02:58:18;1.20;99.90
15103;DHT22;7652;53.584;9.998;2022-11-21T03:01:21;1.00;99.90
15103;DHT22;7652;53.584;9.998;2022-11-21T03:04:25;0.90;99.90
15103;DHT22;7652;53.584;9.998;2022-11-21T03:07:28;1.00;99.90
15103;DHT22;7652;53.584;9.998;2022-11-21T03:10:32;1.00;99.90
15103;DHT22;7652;53.584;9.998;2022-11-21T03:13:36;0.90;99.90
15103;DHT22;7652;53.584;9.998;2022-11-21T03:16:39;0.90;99.90
15103;DHT22;7652;53.584;9.998;2022-11-21T03:19:42;0.90;99.90
15103;DHT22;7652;53.584;9.998;2022-11-21T03:22:45;0.90;99.90
15103;DHT22;7652;53.584;9.998;2022-11-21T03:25:48;0.80;99.90
15103;DHT22;7652;53.584;9.998;2022-11-21T03:28:52;0.90;99.90
15103;DHT22;7652;53.584;9.998;2022-11-21T03:31:55;0.90;99.90
15103;DHT22;7652;53.584;9.998;2022-11-21T03:34:58;0.90;99.90
15103;DHT22;7652;53.584;9.998;2022-11-21T03:38:01;0.90;99.90
15103;DHT22;7652;53.584;9.998;2022-11-21T03:41:05;0.90;99.90
15103;DHT22;7652;53.584;9.998;2022-11-21T03:44:29;0.80;99.90
15103;DHT22;7652;53.584;9.998;2022-11-21T03:47:32;0.70;99.90
15103;DHT22;7652;53.584;9.998;2022-11-21T03:50:35;0.60;99.90
15103;DHT22;7652;53.584;9.998;2022-11-21T03:53:38;0.60;99.90
15103;DHT22;7652;53.584;9.998;2022-11-21T03:56:41;0.70;99.90
15103;DHT22;7652;53.584;9.998;2022-11-21T03:59:45;0.70;99.90
15103;DHT22;7652;53.584;9.998;2022-11-21T04:02:48;0.70;99.90
15103;DHT22;7652;53.584;9.998;2022-11-21T04:05:51;0.60;99.90
15103;DHT22;7652;53.584;9.998;2022-11-21T04:08:54;0.60;99.90
15103;DHT22;7652;53.584;9.998;2022-11-21T04:11:57;0.70;99.90
15103;DHT22;7652;53.584;9.998;2022-11-21T04:15:07;0.70;99.90
15103;DHT22;7652;53.584;9.998;2022-11-21T04:18:14;0.70;99.90
15103;DHT22;7652;53.584;9.998;2022-11-21T04:21:18;0.70;99.90
15103;DHT22;7652;53.584;9.998;2022-11-21T04:24:21;0.70;99.90
15103;DHT22;7652;53.584;9.998;2022-11-21T04:27:24;0.70;99.90
15103;DHT22;7652;53.584;9.998;2022-11-21T04:30:29;0.70;99.90
15103;DHT22;7652;53.584;9.998;2022-11-21T04:33:32;0.60;99.90
15103;DHT22;7652;53.584;9.998;2022-11-21T04:36:35;0.60;99.90
15103;DHT22;7652;53.584;9.998;2022-11-21T04:39:38;0.50;99.90
15103;DHT22;7652;53.584;9.998;2022-11-21T04:42:42;0.50;99.90
15103;DHT22;7652;53.584;9.998;2022-11-21T04:45:47;0.40;99.90
15103;DHT22;7652;53.584;9.998;2022-11-21T04:48:50;0.30;99.90
15103;DHT22;7652;53.584;9.998;2022-11-21T04:51:53;0.30;99.90
15103;DHT22;7652;53.584;9.998;2022-11-21T04:54:56;0.30;99.90
15103;DHT22;7652;53.584;9.998;2022-11-21T04:57:59;0.20;99.90
15103;DHT22;7652;53.584;9.998;2022-11-21T05:01:07;0.10;99.90
15103;DHT22;7652;53.584;9.998;2022-11-21T05:04:10;0.10;99.90
15103;DHT22;7652;53.584;9.998;2022-11-21T05:07:14;0.10;99.90
15103;DHT22;7652;53.584;9.998;2022-11-21T05:10:17;0.10;99.90
15103;DHT22;7652;53.584;9.998;2022-11-21T05:13:20;0.00;99.90
15103;DHT22;7652;53.584;9.998;2022-11-21T05:16:23;0.00;99.90
15103;DHT22;7652;53.584;9.998;2022-11-21T05:19:26;0.00;99.90
15103;DHT22;7652;53.584;9.998;2022-11-21T05:22:29;0.00;99.90
15103;DHT22;7652;53.584;9.998;2022-11-21T05:25:32;0.00;99.90
15103;DHT22;7652;53.584;9.998;2022-11-21T05:28:35;0.00;99.90
15103;DHT22;7652;53.584;9.998;2022-11-21T05:31:39;0.10;99.90
15103;DHT22;7652;53.584;9.998;2022-11-21T05:34:42;0.10;99.90
15103;DHT22;7652;53.584;9.998;2022-11-21T05:37:45;0.10;99.90
15103;DHT22;7652;53.584;9.998;2022-11-21T05:40:50;0.00;99.90
15103;DHT22;7652;53.584;9.998;2022-11-21T05:43:53;0.00;99.90
15103;DHT22;7652;53.584;9.998;2022-11-21T05:46:58;-0.10;99.90
15103;DHT22;7652;53.584;9.998;2022-11-21T05:50:01;-0.10;99.90
15103;DHT22;7652;53.584;9.998;2022-11-21T05:53:04;0.00;99.90
15103;DHT22;7652;53.584;9.998;2022-11-21T05:56:08;0.00;99.90
15103;DHT22;7652;53.584;9.998;2022-11-21T05:59:12;0.00;99.90
15103;DHT22;7652;53.584;9.998;2022-11-21T06:02:16;0.10;99.90
15103;DHT22;7652;53.584;9.998;2022-11-21T06:05:37;0.20;99.90
15103;DHT22;7652;53.584;9.998;2022-11-21T06:08:42;0.30;99.90
15103;DHT22;7652;53.584;9.998;2022-11-21T06:11:45;0.30;99.90
15103;DHT22;7652;53.584;9.998;2022-11-21T06:14:48;0.30;99.90
15103;DHT22;7652;53.584;9.998;2022-11-21T06:17:52;0.20;99.90
15103;DHT22;7652;53.584;9.998;2022-11-21T06:21:00;0.30;99.90
15103;DHT22;7652;53.584;9.998;2022-11-21T06:24:04;0.40;99.90
15103;DHT22;7652;53.584;9.998;2022-11-21T06:27:07;0.50;99.90
15103;DHT22;7652;53.584;9.998;2022-11-21T06:30:10;0.50;99.90
15103;DHT22;7652;53.584;9.998;2022-11-21T06:33:14;0.40;99.90
15103;DHT22;7652;53.584;9.998;2022-11-21T06:36:17;0.20;99.90
15103;DHT22;7652;53.584;9.998;2022-11-21T06:39:21;0.10;99.90
15103;DHT22;7652;53.584;9.998;2022-11-21T06:42:24;0.30;99.90
15103;DHT22;7652;53.584;9.998;2022-11-21T06:45:27;0.20;99.90
15103;DHT22;7652;53.584;9.998;2022-11-21T06:48:31;0.20;99.90
15103;DHT22;7652;53.584;9.998;2022-11-21T06:51:34;0.20;99.90
15103;DHT22;7652;53.584;9.998;2022-11-21T06:54:37;0.20;99.90
15103;DHT22;7652;53.584;9.998;2022-11-21T06:57:40;0.30;99.90
15103;DHT22;7652;53.584;9.998;2022-11-21T07:00:43;0.20;99.90
15103;DHT22;7652;53.584;9.998;2022-11-21T07:03:48;0.30;99.90
15103;DHT22;7652;53.584;9.998;2022-11-21T07:06:51;0.20;99.90
15103;DHT22;7652;53.584;9.998;2022-11-21T07:09:54;0.20;99.90
15103;DHT22;7652;53.584;9.998;2022-11-21T07:12:57;0.10;99.90
15103;DHT22;7652;53.584;9.998;2022-11-21T07:16:18;0.00;99.90
15103;DHT22;7652;53.584;9.998;2022-11-21T07:19:22;0.10;99.90
15103;DHT22;7652;53.584;9.998;2022-11-21T07:22:25;0.20;99.90
15103;DHT22;7652;53.584;9.998;2022-11-21T07:25:28;0.20;99.90
15103;DHT22;7652;53.584;9.998;2022-11-21T07:28:37;0.10;99.90
15103;DHT22;7652;53.584;9.998;2022-11-21T07:31:40;0.00;99.90
15103;DHT22;7652;53.584;9.998;2022-11-21T07:34:44;0.10;99.90
15103;DHT22;7652;53.584;9.998;2022-11-21T07:37:47;0.30;99.90
15103;DHT22;7652;53.584;9.998;2022-11-21T07:40:51;0.30;99.90
15103;DHT22;7652;53.584;9.998;2022-11-21T07:43:54;0.30;99.90
15103;DHT22;7652;53.584;9.998;2022-11-21T07:46:57;0.30;99.90
15103;DHT22;7652;53.584;9.998;2022-11-21T07:50:01;0.30;99.90
15103;DHT22;7652;53.584;9.998;2022-11-21T07:53:05;0.30;99.90
15103;DHT22;7652;53.584;9.998;2022-11-21T07:56:09;0.30;99.90
15103;DHT22;7652;53.584;9.998;2022-11-21T07:59:12;0.30;99.90
15103;DHT22;7652;53.584;9.998;2022-11-21T08:02:17;0.30;99.90
15103;DHT22;7652;53.584;9.998;2022-11-21T08:05:22;0.40;99.90
15103;DHT22;7652;53.584;9.998;2022-11-21T08:08:25;0.50;99.90
15103;DHT22;7652;53.584;9.998;2022-11-21T08:11:29;0.40;99.90
15103;DHT22;7652;53.584;9.998;2022-11-21T08:14:33;0.50;99.90
15103;DHT22;7652;53.584;9.998;2022-11-21T08:17:36;0.40;99.90
15103;DHT22;7652;53.584;9.998;2022-11-21T08:20:41;0.50;99.90
15103;DHT22;7652;53.584;9.998;2022-11-21T08:23:44;0.70;99.90
15103;DHT22;7652;53.584;9.998;2022-11-21T08:26:48;0.80;99.90
15103;DHT22;7652;53.584;9.998;2022-11-21T08:29:51;0.90;99.90
15103;DHT22;7652;53.584;9.998;2022-11-21T08:32:54;1.20;99.90
15103;DHT22;7652;53.584;9.998;2022-11-21T08:36:01;1.70;99.90
15103;DHT22;7652;53.584;9.998;2022-11-21T08:39:04;2.00;99.90
15103;DHT22;7652;53.584;9.998;2022-11-21T08:42:09;2.20;99.90
15103;DHT22;7652;53.584;9.998;2022-11-21T08:45:12;2.70;99.90
15103;DHT22;7652;53.584;9.998;2022-11-21T08:48:15;3.00;99.90
15103;DHT22;7652;53.584;9.998;2022-11-21T08:51:19;2.90;99.90
15103;DHT22;7652;53.584;9.998;2022-11-21T08:54:23;2.90;99.90
15103;DHT22;7652;53.584;9.998;2022-11-21T08:57:27;2.80;99.90
15103;DHT22;7652;53.584;9.998;2022-11-21T09:00:30;2.60;99.90
15103;DHT22;7652;53.584;9.998;2022-11-21T09:03:33;2.60;99.90
15103;DHT22;7652;53.584;9.998;2022-11-21T09:06:37;2.60;99.90
15103;DHT22;7652;53.584;9.998;2022-11-21T09:09:40;2.50;99.90
15103;DHT22;7652;53.584;9.998;2022-11-21T09:12:43;2.60;99.90
15103;DHT22;7652;53.584;9.998;2022-11-21T09:15:46;2.60;99.90
15103;DHT22;7652;53.584;9.998;2022-11-21T09:19:07;2.60;99.90
15103;DHT22;7652;53.584;9.998;2022-11-21T09:22:11;2.90;99.90
15103;DHT22;7652;53.584;9.998;2022-11-21T09:25:14;3.10;99.90
15103;DHT22;7652;53.584;9.998;2022-11-21T09:28:17;3.20;99.90
15103;DHT22;7652;53.584;9.998;2022-11-21T09:31:20;3.30;99.90
15103;DHT22;7652;53.584;9.998;2022-11-21T09:34:24;3.30;99.90
15103;DHT22;7652;53.584;9.998;2022-11-21T09:37:29;3.40;99.90
15103;DHT22;7652;53.584;9.998;2022-11-21T09:40:33;3.60;99.90
15103;DHT22;7652;53.584;9.998;2022-11-21T09:43:44;3.90;99.90
15103;DHT22;7652;53.584;9.998;2022-11-21T09:47:02;4.30;99.90
15103;DHT22;7652;53.584;9.998;2022-11-21T09:50:27;4.30;99.90
15103;DHT22;7652;53.584;9.998;2022-11-21T09:53:34;4.20;99.90
15103;DHT22;7652;53.584;9.998;2022-11-21T09:56:40;4.10;99.90
15103;DHT22;7652;53.584;9.998;2022-11-21T09:59:44;3.90;99.90
15103;DHT22;7652;53.584;9.998;2022-11-21T10:02:48;3.80;99.90
15103;DHT22;7652;53.584;9.998;2022-11-21T10:05:54;3.60;99.90
15103;DHT22;7652;53.584;9.998;2022-11-21T10:09:06;3.40;99.90
15103;DHT22;7652;53.584;9.998;2022-11-21T10:12:18;3.40;99.90
15103;DHT22;7652;53.584;9.998;2022-11-21T10:15:54;3.30;99.90
15103;DHT22;7652;53.584;9.998;2022-11-21T10:19:12;3.20;99.90
15103;DHT22;7652;53.584;9.998;2022-11-21T10:22:38;3.30;99.90
15103;DHT22;7652;53.584;9.998;2022-11-21T10:25:52;3.50;99.90
15103;DHT22;7652;53.584;9.998;2022-11-21T10:28:59;3.60;99.90
15103;DHT22;7652;53.584;9.998;2022-11-21T10:32:12;3.70;99.90
15103;DHT22;7652;53.584;9.998;2022-11-21T10:35:21;3.90;99.90
15103;DHT22;7652;53.584;9.998;2022-11-21T10:38:25;3.70;99.90
15103;DHT22;7652;53.584;9.998;2022-11-21T10:41:39;3.60;99.90
15103;DHT22;7652;53.584;9.998;2022-11-21T10:44:42;3.40;99.90
15103;DHT22;7652;53.584;9.998;2022-11-21T10:48:03;3.40;99.90
15103;DHT22;7652;53.584;9.998;2022-11-21T10:51:25;3.50;99.90
15103;DHT22;7652;53.584;9.998;2022-11-21T10:54:29;3.90;99.90
15103;DHT22;7652;53.584;9.998;2022-11-21T10:57:43;4.50;99.90
15103;DHT22;7652;53.584;9.998;2022-11-21T11:00:56;5.20;99.90
15103;DHT22;7652;53.584;9.998;2022-11-21T11:04:20;5.80;99.90
15103;DHT22;7652;53.584;9.998;2022-11-21T11:07:38;6.40;99.90
15103;DHT22;7652;53.584;9.998;2022-11-21T11:10:43;7.40;99.90
15103;DHT22;7652;53.584;9.998;2022-11-21T11:13:56;7.90;99.90
15103;DHT22;7652;53.584;9.998;2022-11-21T11:16:59;9.10;99.90
15103;DHT22;7652;53.584;9.998;2022-11-21T11:20:05;10.60;99.90
15103;DHT22;7652;53.584;9.998;2022-11-21T11:23:22;12.00;99.90
15103;DHT22;7652;53.584;9.998;2022-11-21T11:26:27;12.70;99.00
15103;DHT22;7652;53.584;9.998;2022-11-21T11:29:32;12.10;99.90
15103;DHT22;7652;53.584;9.998;2022-11-21T11:32:50;13.00;96.70
15103;DHT22;7652;53.584;9.998;2022-11-21T11:35:54;12.40;97.10
15103;DHT22;7652;53.584;9.998;2022-11-21T11:38:59;11.40;97.40
15103;DHT22;7652;53.584;9.998;2022-11-21T11:42:44;10.20;99.90
15103;DHT22;7652;53.584;9.998;2022-11-21T11:46:22;9.80;99.90
15103;DHT22;7652;53.584;9.998;2022-11-21T11:49:50;11.20;99.90
15103;DHT22;7652;53.584;9.998;2022-11-21T11:53:16;11.80;98.50
15103;DHT22;7652;53.584;9.998;2022-11-21T11:56:23;12.10;97.60
15103;DHT22;7652;53.584;9.998;2022-11-21T11:59:31;12.60;95.70
15103;DHT22;7652;53.584;9.998;2022-11-21T12:02:46;12.50;95.60
15103;DHT22;7652;53.584;9.998;2022-11-21T12:05:55;11.80;96.50
15103;DHT22;7652;53.584;9.998;2022-11-21T12:09:10;12.10;97.00
15103;DHT22;7652;53.584;9.998;2022-11-21T12:12:22;12.60;95.40
15103;DHT22;7652;53.584;9.998;2022-11-21T12:15:34;12.80;93.80
15103;DHT22;7652;53.584;9.998;2022-11-21T12:18:59;13.00;92.10
15103;DHT22;7652;53.584;9.998;2022-11-21T12:22:02;12.90;91.70
15103;DHT22;7652;53.584;9.998;2022-11-21T12:25:10;12.40;91.40
15103;DHT22;7652;53.584;9.998;2022-11-21T12:28:22;12.20;92.10
15103;DHT22;7652;53.584;9.998;2022-11-21T12:31:34;12.30;92.50
15103;DHT22;7652;53.584;9.998;2022-11-21T12:35:01;12.40;91.50
15103;DHT22;7652;53.584;9.998;2022-11-21T12:38:20;12.50;91.20
15103;DHT22;7652;53.584;9.998;2022-11-21T12:41:31;13.30;89.80
15103;DHT22;7652;53.584;9.998;2022-11-21T12:45:22;13.70;88.70
15103;DHT22;7652;53.584;9.998;2022-11-21T12:48:39;13.20;87.80
15103;DHT22;7652;53.584;9.998;2022-11-21T12:52:12;13.90;84.00
15103;DHT22;7652;53.584;9.998;2022-11-21T12:55:35;14.20;81.90
15103;DHT22;7652;53.584;9.998;2022-11-21T12:58:45;14.60;80.10
15103;DHT22;7652;53.584;9.998;2022-11-21T13:01:58;14.10;79.90
15103;DHT22;7652;53.584;9.998;2022-11-21T13:05:09;14.60;77.60
15103;DHT22;7652;53.584;9.998;2022-11-21T13:08:18;14.50;77.30
15103;DHT22;7652;53.584;9.998;2022-11-21T13:11:32;14.50;78.20
15103;DHT22;7652;53.584;9.998;2022-11-21T13:14:57;14.70;74.60
15103;DHT22;7652;53.584;9.998;2022-11-21T13:18:15;14.30;75.00
15103;DHT22;7652;53.584;9.998;2022-11-21T13:21:40;13.60;76.80
15103;DHT22;7652;53.584;9.998;2022-11-21T13:24:59;13.50;80.80
15103;DHT22;7652;53.584;9.998;2022-11-21T13:28:30;12.80;87.20
15103;DHT22;7652;53.584;9.998;2022-11-21T13:31:34;11.50;92.40
15103;DHT22;7652;53.584;9.998;2022-11-21T13:34:37;11.20;94.00
15103;DHT22;7652;53.584;9.998;2022-11-21T13:38:00;10.90;94.50
15103;DHT22;7652;53.584;9.998;2022-11-21T13:41:06;10.80;96.00
15103;DHT22;7652;53.584;9.998;2022-11-21T13:44:37;11.00;96.00
15103;DHT22;7652;53.584;9.998;2022-11-21T13:48:04;10.50;95.90
15103;DHT22;7652;53.584;9.998;2022-11-21T13:51:40;10.00;98.80
15103;DHT22;7652;53.584;9.998;2022-11-21T13:55:13;9.10;99.90
15103;DHT22;7652;53.584;9.998;2022-11-21T13:58:27;9.60;99.90
15103;DHT22;7652;53.584;9.998;2022-11-21T14:01:51;9.50;99.90
15103;DHT22;7652;53.584;9.998;2022-11-21T14:05:12;9.10;99.90
15103;DHT22;7652;53.584;9.998;2022-11-21T14:08:19;8.50;99.90
15103;DHT22;7652;53.584;9.998;2022-11-21T14:11:32;8.00;99.90
15103;DHT22;7652;53.584;9.998;2022-11-21T14:14:43;7.00;99.90
15103;DHT22;7652;53.584;9.998;2022-11-21T14:17:49;6.90;99.90
15103;DHT22;7652;53.584;9.998;2022-11-21T14:20:54;6.70;99.90
15103;DHT22;7652;53.584;9.998;2022-11-21T14:24:01;6.40;99.90
15103;DHT22;7652;53.584;9.998;2022-11-21T14:27:14;6.10;99.90
15103;DHT22;7652;53.584;9.998;2022-11-21T14:30:30;5.90;99.90
15103;DHT22;7652;53.584;9.998;2022-11-21T14:33:35;5.60;99.90
15103;DHT22;7652;53.584;9.998;2022-11-21T14:36:39;5.20;99.90
15103;DHT22;7652;53.584;9.998;2022-11-21T14:39:44;5.20;99.90
15103;DHT22;7652;53.584;9.998;2022-11-21T14:42:57;5.20;99.90
15103;DHT22;7652;53.584;9.998;2022-11-21T14:46:03;5.20;99.90
15103;DHT22;7652;53.584;9.998;2022-11-21T14:49:18;5.00;99.90
15103;DHT22;7652;53.584;9.998;2022-11-21T14:52:23;4.80;99.90
15103;DHT22;7652;53.584;9.998;2022-11-21T14:55:29;4.90;99.90
15103;DHT22;7652;53.584;9.998;2022-11-21T14:58:33;4.70;99.90
15103;DHT22;7652;53.584;9.998;2022-11-21T15:01:38;4.60;99.90
15103;DHT22;7652;53.584;9.998;2022-11-21T15:04:50;4.40;99.90
15103;DHT22;7652;53.584;9.998;2022-11-21T15:07:53;4.50;99.90
15103;DHT22;7652;53.584;9.998;2022-11-21T15:11:18;4.40;99.90
15103;DHT22;7652;53.584;9.998;2022-11-21T15:14:25;4.30;99.90
15103;DHT22;7652;53.584;9.998;2022-11-21T15:17:32;4.30;99.90
15103;DHT22;7652;53.584;9.998;2022-11-21T15:20:35;4.30;99.90
15103;DHT22;7652;53.584;9.998;2022-11-21T15:23:38;4.20;99.90
15103;DHT22;7652;53.584;9.998;2022-11-21T15:26:44;4.20;99.90
15103;DHT22;7652;53.584;9.998;2022-11-21T15:29:48;4.20;99.90
15103;DHT22;7652;53.584;9.998;2022-11-21T15:33:05;3.90;99.90
15103;DHT22;7652;53.584;9.998;2022-11-21T15:36:11;3.90;99.90
15103;DHT22;7652;53.584;9.998;2022-11-21T15:39:18;3.90;99.90
15103;DHT22;7652;53.584;9.998;2022-11-21T15:42:27;3.80;99.90
15103;DHT22;7652;53.584;9.998;2022-11-21T15:45:30;3.70;99.90
15103;DHT22;7652;53.584;9.998;2022-11-21T15:48:34;3.60;99.90
15103;DHT22;7652;53.584;9.998;2022-11-21T15:51:39;3.60;99.90
15103;DHT22;7652;53.584;9.998;2022-11-21T15:55:02;3.50;99.90
15103;DHT22;7652;53.584;9.998;2022-11-21T15:58:05;3.50;99.90
15103;DHT22;7652;53.584;9.998;2022-11-21T16:01:14;3.40;99.90
15103;DHT22;7652;53.584;9.998;2022-11-21T16:04:18;3.40;99.90
15103;DHT22;7652;53.584;9.998;2022-11-21T16:07:26;3.40;99.90
15103;DHT22;7652;53.584;9.998;2022-11-21T16:10:29;3.40;99.90
15103;DHT22;7652;53.584;9.998;2022-11-21T16:13:32;3.20;99.90
15103;DHT22;7652;53.584;9.998;2022-11-21T16:16:37;3.20;99.90
15103;DHT22;7652;53.584;9.998;2022-11-21T16:19:45;3.10;99.90
15103;DHT22;7652;53.584;9.998;2022-11-21T16:22:48;3.10;99.90
15103;DHT22;7652;53.584;9.998;2022-11-21T16:25:52;3.10;99.90
15103;DHT22;7652;53.584;9.998;2022-11-21T16:28:56;3.00;99.90
15103;DHT22;7652;53.584;9.998;2022-11-21T16:31:59;3.00;99.90
15103;DHT22;7652;53.584;9.998;2022-11-21T16:35:04;3.00;99.90
15103;DHT22;7652;53.584;9.998;2022-11-21T16:38:07;2.90;99.90
15103;DHT22;7652;53.584;9.998;2022-11-21T16:41:10;3.00;99.90
15103;DHT22;7652;53.584;9.998;2022-11-21T16:44:14;2.90;99.90
15103;DHT22;7652;53.584;9.998;2022-11-21T16:47:18;2.80;99.90
15103;DHT22;7652;53.584;9.998;2022-11-21T16:50:22;2.70;99.90
15103;DHT22;7652;53.584;9.998;2022-11-21T16:53:29;2.70;99.90
15103;DHT22;7652;53.584;9.998;2022-11-21T16:56:32;2.70;99.90
15103;DHT22;7652;53.584;9.998;2022-11-21T16:59:35;2.60;99.90
15103;DHT22;7652;53.584;9.998;2022-11-21T17:02:38;2.40;99.90
15103;DHT22;7652;53.584;9.998;2022-11-21T17:05:57;2.40;99.90
15103;DHT22;7652;53.584;9.998;2022-11-21T17:09:01;2.50;99.90
15103;DHT22;7652;53.584;9.998;2022-11-21T17:12:04;2.40;99.90
15103;DHT22;7652;53.584;9.998;2022-11-21T17:15:10;2.40;99.90
15103;DHT22;7652;53.584;9.998;2022-11-21T17:18:13;2.40;99.90
15103;DHT22;7652;53.584;9.998;2022-11-21T17:21:17;2.40;99.90
15103;DHT22;7652;53.584;9.998;2022-11-21T17:24:20;2.30;99.90
15103;DHT22;7652;53.584;9.998;2022-11-21T17:27:23;2.20;99.90
15103;DHT22;7652;53.584;9.998;2022-11-21T17:30:26;2.00;99.90
15103;DHT22;7652;53.584;9.998;2022-11-21T17:33:31;2.10;99.90
15103;DHT22;7652;53.584;9.998;2022-11-21T17:36:35;2.10;99.90
15103;DHT22;7652;53.584;9.998;2022-11-21T17:39:38;2.10;99.90
15103;DHT22;7652;53.584;9.998;2022-11-21T17:42:41;1.90;99.90
15103;DHT22;7652;53.584;9.998;2022-11-21T17:45:44;1.70;99.90
15103;DHT22;7652;53.584;9.998;2022-11-21T17:48:49;1.70;99.90
15103;DHT22;7652;53.584;9.998;2022-11-21T17:51:59;1.80;99.90
15103;DHT22;7652;53.584;9.998;2022-11-21T17:55:03;1.70;99.90
15103;DHT22;7652;53.584;9.998;2022-11-21T17:58:06;1.70;99.90
15103;DHT22;7652;53.584;9.998;2022-11-21T18:01:11;1.50;99.90
15103;DHT22;7652;53.584;9.998;2022-11-21T18:04:20;1.50;99.90
15103;DHT22;7652;53.584;9.998;2022-11-21T18:07:24;1.50;99.90
15103;DHT22;7652;53.584;9.998;2022-11-21T18:10:27;1.30;99.90
15103;DHT22;7652;53.584;9.998;2022-11-21T18:13:44;1.20;99.90
15103;DHT22;7652;53.584;9.998;2022-11-21T18:16:48;1.30;99.90
15103;DHT22;7652;53.584;9.998;2022-11-21T18:19:54;1.20;99.90
15103;DHT22;7652;53.584;9.998;2022-11-21T18:22:58;1.10;99.90
15103;DHT22;7652;53.584;9.998;2022-11-21T18:26:02;1.10;99.90
15103;DHT22;7652;53.584;9.998;2022-11-21T18:29:07;1.10;99.90
15103;DHT22;7652;53.584;9.998;2022-11-21T18:32:30;1.00;99.90
15103;DHT22;7652;53.584;9.998;2022-11-21T18:35:35;0.90;99.90
15103;DHT22;7652;53.584;9.998;2022-11-21T18:38:41;0.90;99.90
15103;DHT22;7652;53.584;9.998;2022-11-21T18:41:54;0.90;99.90
15103;DHT22;7652;53.584;9.998;2022-11-21T18:44:57;0.90;99.90
15103;DHT22;7652;53.584;9.998;2022-11-21T18:48:00;0.90;99.90
15103;DHT22;7652;53.584;9.998;2022-11-21T18:51:04;0.70;99.90
15103;DHT22;7652;53.584;9.998;2022-11-21T18:54:09;0.50;99.90
15103;DHT22;7652;53.584;9.998;2022-11-21T18:57:12;0.50;99.90
15103;DHT22;7652;53.584;9.998;2022-11-21T19:00:16;0.50;99.90
15103;DHT22;7652;53.584;9.998;2022-11-21T19:03:19;0.60;99.90
15103;DHT22;7652;53.584;9.998;2022-11-21T19:06:24;0.50;99.90
15103;DHT22;7652;53.584;9.998;2022-11-21T19:09:28;0.60;99.90
15103;DHT22;7652;53.584;9.998;2022-11-21T19:12:33;0.60;99.90
15103;DHT22;7652;53.584;9.998;2022-11-21T19:15:41;0.40;99.90
15103;DHT22;7652;53.584;9.998;2022-11-21T19:18:44;0.50;99.90
15103;DHT22;7652;53.584;9.998;2022-11-21T19:22:07;0.50;99.90
15103;DHT22;7652;53.584;9.998;2022-11-21T19:25:11;0.40;99.90
15103;DHT22;7652;53.584;9.998;2022-11-21T19:28:14;0.50;99.90
15103;DHT22;7652;53.584;9.998;2022-11-21T19:31:18;0.50;99.90
15103;DHT22;7652;53.584;9.998;2022-11-21T19:34:21;0.50;99.90
15103;DHT22;7652;53.584;9.998;2022-11-21T19:37:24;0.50;99.90
15103;DHT22;7652;53.584;9.998;2022-11-21T19:40:28;0.50;99.90
15103;DHT22;7652;53.584;9.998;2022-11-21T19:43:53;0.50;99.90
15103;DHT22;7652;53.584;9.998;2022-11-21T19:46:56;0.50;99.90
15103;DHT22;7652;53.584;9.998;2022-11-21T19:49:59;0.50;99.90
15103;DHT22;7652;53.584;9.998;2022-11-21T19:53:02;0.50;99.90
15103;DHT22;7652;53.584;9.998;2022-11-21T19:56:08;0.40;99.90
15103;DHT22;7652;53.584;9.998;2022-11-21T19:59:12;0.40;99.90
15103;DHT22;7652;53.584;9.998;2022-11-21T20:02:17;0.40;99.90
15103;DHT22;7652;53.584;9.998;2022-11-21T20:05:20;0.50;99.90
15103;DHT22;7652;53.584;9.998;2022-11-21T20:08:23;0.60;99.90
15103;DHT22;7652;53.584;9.998;2022-11-21T20:11:29;0.60;99.90
15103;DHT22;7652;53.584;9.998;2022-11-21T20:14:32;0.70;99.90
15103;DHT22;7652;53.584;9.998;2022-11-21T20:17:35;0.60;99.90